Isle of Harris, United Kingdom
Current Conditions -  °F | °C
As of 8:20 AM on Sunday 26 Oct 2014 (Local Time) from EGPO Reporting Station
Light Rain Light Rain  
Wind Chill: 10°   Ceiling: Unl
Heat Index: 10°   Visibility: 6mi
Dew Point:   Wind: 21mph
Humidity: 87%   Direction: 220°SW
Pressure: 29.29"   Gusts: NA
Location:  57.99°N, 6.75°W
Report Text: EGPO 260720Z AUTO 22018KT 9999 -RA FEW031/// SCT045/// 10/08 Q0992
Loading
Personal Weather Stations






























Interactive Weather Map
Tropical Storm Tracking
New forecast layout! Learn more

10-Day Weather Forecast

Advertisements
Track Severe Weather on mobile